createdAt,value
2018-06-25T00:02:18.856Z,6.73
2018-06-25T00:04:47.096Z,7.07
2018-06-25T00:07:15.528Z,7.83
2018-06-25T00:09:43.745Z,8.87
2018-06-25T00:12:11.880Z,9.33
2018-06-25T00:14:40.056Z,9.57
2018-06-25T00:17:08.190Z,10.47
2018-06-25T00:19:36.695Z,10.13
2018-06-25T00:22:04.962Z,11.10
2018-06-25T00:24:33.091Z,10.13
2018-06-25T00:27:01.216Z,10.73
2018-06-25T00:29:29.585Z,11.63
2018-06-25T00:31:57.727Z,12.37
2018-06-25T00:34:26.023Z,11.70
2018-06-25T00:36:54.265Z,11.87
2018-06-25T00:39:22.580Z,11.57
2018-06-25T00:41:50.912Z,11.80
2018-06-25T00:44:19.497Z,11.50
2018-06-25T00:46:47.781Z,13.10
2018-06-25T00:49:16.082Z,12.30
2018-06-25T00:51:44.261Z,11.70
2018-06-25T00:54:12.524Z,11.43
2018-06-25T00:56:40.675Z,12.33
2018-06-25T00:59:14.427Z,11.80
2018-06-25T01:01:42.649Z,13.90
2018-06-25T01:04:10.955Z,12.10
2018-06-25T01:06:39.121Z,12.83
2018-06-25T01:09:08.184Z,11.77
2018-06-25T01:11:36.434Z,11.93
2018-06-25T01:14:04.752Z,11.17
2018-06-25T01:16:32.968Z,11.67
2018-06-25T01:19:01.600Z,12.47
2018-06-25T01:21:29.816Z,11.90
2018-06-25T01:23:57.991Z,11.83
2018-06-25T01:26:26.124Z,10.90
2018-06-25T01:28:54.275Z,10.87
2018-06-25T01:31:22.808Z,12.03
2018-06-25T01:33:51.079Z,12.80
2018-06-25T01:36:19.252Z,11.03
2018-06-25T01:38:47.455Z,10.63
2018-06-25T01:41:15.628Z,9.27
2018-06-25T01:43:43.991Z,10.07
2018-06-25T01:46:12.152Z,9.90
2018-06-25T01:48:40.314Z,9.60
2018-06-25T01:51:08.687Z,10.77
2018-06-25T01:53:36.912Z,9.87
2018-06-25T01:56:05.183Z,9.43
2018-06-25T01:58:33.367Z,10.23
2018-06-25T02:01:01.593Z,9.83
2018-06-25T02:03:29.750Z,9.67
2018-06-25T02:05:57.973Z,9.97
2018-06-25T02:08:26.136Z,9.67
2018-06-25T02:10:54.319Z,9.97
2018-06-25T02:13:23.355Z,9.67
2018-06-25T02:15:51.815Z,10.63
2018-06-25T02:18:20.062Z,9.57
2018-06-25T02:20:48.223Z,10.40
2018-06-25T02:23:16.392Z,33.33
2018-06-25T02:25:44.600Z,19.87
2018-06-25T02:28:12.850Z,13.03
2018-06-25T02:30:40.987Z,9.97
2018-06-25T02:33:09.168Z,9.70
2018-06-25T02:35:37.509Z,9.33
2018-06-25T02:38:05.684Z,8.33
2018-06-25T02:40:33.874Z,7.37
2018-06-25T02:43:02.118Z,7.40
2018-06-25T02:45:30.280Z,6.83
2018-06-25T02:47:58.458Z,7.30
2018-06-25T02:50:26.622Z,6.10
2018-06-25T02:52:54.816Z,5.90
2018-06-25T02:55:23.696Z,5.53
2018-06-25T02:57:51.987Z,5.50
2018-06-25T03:00:20.256Z,5.57
2018-06-25T03:02:48.416Z,4.93
2018-06-25T03:05:16.980Z,5.40
2018-06-25T03:07:45.137Z,4.53
2018-06-25T03:10:13.307Z,3.90
2018-06-25T03:12:41.549Z,4.10
2018-06-25T03:15:09.757Z,8.57
2018-06-25T03:17:38.162Z,4.07
2018-06-25T03:20:06.315Z,3.70
2018-06-25T03:22:34.527Z,4.13
2018-06-25T03:25:02.711Z,3.10
2018-06-25T03:27:30.858Z,3.10
2018-06-25T03:29:59.043Z,3.30
2018-06-25T03:32:27.219Z,3.20
2018-06-25T03:34:55.399Z,3.27
2018-06-25T03:37:23.731Z,3.30
2018-06-25T03:39:51.959Z,3.07
2018-06-25T03:42:20.333Z,3.30
2018-06-25T03:44:48.530Z,2.80
2018-06-25T03:47:16.692Z,2.97
2018-06-25T03:49:44.855Z,3.10
2018-06-25T03:52:13.087Z,2.97
2018-06-25T03:54:41.296Z,2.97
2018-06-25T03:57:09.620Z,2.90
2018-06-25T03:59:37.779Z,2.60
2018-06-25T04:02:06.028Z,2.40
2018-06-25T04:04:34.227Z,2.73
2018-06-25T04:07:02.368Z,2.80
2018-06-25T04:09:30.617Z,2.90
2018-06-25T04:11:58.779Z,2.80
2018-06-25T04:14:26.979Z,2.50
2018-06-25T04:16:55.128Z,2.27
2018-06-25T04:19:23.356Z,2.47
2018-06-25T04:21:51.505Z,2.63
2018-06-25T04:24:19.704Z,2.67
2018-06-25T04:26:47.863Z,2.60
2018-06-25T04:29:16.071Z,2.60
2018-06-25T04:31:44.300Z,2.67
2018-06-25T04:34:12.495Z,2.77
2018-06-25T04:36:40.661Z,2.30
2018-06-25T04:39:09.760Z,2.40
2018-06-25T04:41:37.980Z,2.70
2018-06-25T04:44:06.645Z,2.40
2018-06-25T04:46:34.817Z,2.60
2018-06-25T04:49:03.066Z,49.90
2018-06-25T04:51:31.256Z,5.57
2018-06-25T04:53:59.375Z,2.67
2018-06-25T04:56:27.516Z,2.40
2018-06-25T04:58:55.648Z,2.67
2018-06-25T05:01:23.858Z,2.53
2018-06-25T05:03:52.016Z,2.53
2018-06-25T05:06:20.204Z,2.30
2018-06-25T05:08:48.518Z,2.73
2018-06-25T05:11:16.735Z,2.47
2018-06-25T05:13:45.014Z,2.30
2018-06-25T05:16:13.159Z,2.60
2018-06-25T05:18:41.446Z,2.93
2018-06-25T05:21:09.585Z,2.63
2018-06-25T05:23:37.835Z,2.80
2018-06-25T05:26:05.923Z,2.70
2018-06-25T05:28:34.080Z,2.37
2018-06-25T05:31:02.302Z,6.43
2018-06-25T05:33:30.499Z,2.90
2018-06-25T05:35:58.653Z,2.60
2018-06-25T05:38:26.837Z,2.13
2018-06-25T05:40:55.091Z,2.00
2018-06-25T05:43:23.196Z,2.13
2018-06-25T05:45:51.409Z,2.13
2018-06-25T05:48:19.496Z,2.00
2018-06-25T05:50:47.641Z,2.00
2018-06-25T05:53:15.906Z,1.80
2018-06-25T05:55:44.016Z,2.60
2018-06-25T05:58:12.166Z,2.37
2018-06-25T06:00:40.447Z,2.00
2018-06-25T06:03:08.611Z,2.33
2018-06-25T06:05:36.799Z,2.40
2018-06-25T06:08:05.240Z,2.10
2018-06-25T06:10:33.458Z,2.40
2018-06-25T06:13:01.591Z,2.17
2018-06-25T06:15:29.792Z,1.80
2018-06-25T06:17:57.983Z,2.10
2018-06-25T06:20:26.129Z,1.90
2018-06-25T06:22:54.278Z,1.80
2018-06-25T06:25:22.505Z,1.73
2018-06-25T06:27:50.664Z,2.80
2018-06-25T06:30:18.757Z,2.00
2018-06-25T06:32:47.037Z,2.20
2018-06-25T06:35:15.194Z,1.60
2018-06-25T06:37:43.393Z,2.13
2018-06-25T06:40:11.707Z,1.73
2018-06-25T06:42:39.821Z,1.57
2018-06-25T06:45:08.015Z,1.37
2018-06-25T06:47:36.225Z,1.70
2018-06-25T06:50:04.419Z,1.50
2018-06-25T06:52:32.609Z,1.93
2018-06-25T06:55:00.841Z,1.53
2018-06-25T06:57:29.011Z,1.77
2018-06-25T06:59:57.216Z,1.80
2018-06-25T07:02:25.355Z,1.90
2018-06-25T07:04:53.596Z,1.50
2018-06-25T07:07:21.760Z,1.60
2018-06-25T07:09:50.015Z,1.70
2018-06-25T07:12:18.207Z,1.80
2018-06-25T07:14:46.307Z,1.60
2018-06-25T07:17:14.500Z,1.37
2018-06-25T07:19:42.607Z,1.40
2018-06-25T07:22:10.707Z,1.20
2018-06-25T07:24:38.842Z,1.20
2018-06-25T07:27:07.045Z,1.40
2018-06-25T07:29:35.215Z,1.23
2018-06-25T07:32:03.620Z,1.20
2018-06-25T07:34:31.875Z,1.40
2018-06-25T07:37:00.025Z,1.77
2018-06-25T07:39:28.213Z,1.47
2018-06-25T07:41:56.497Z,1.50
2018-06-25T07:44:24.679Z,1.40
2018-06-25T07:46:52.788Z,1.43
2018-06-25T07:49:20.978Z,1.50
2018-06-25T07:51:49.096Z,1.60
2018-06-25T07:54:17.254Z,1.60
2018-06-25T07:56:45.542Z,1.70
2018-06-25T07:59:13.843Z,1.70
2018-06-25T08:01:42.078Z,1.50
2018-06-25T08:04:10.206Z,1.30
2018-06-25T08:06:38.364Z,1.50
2018-06-25T08:09:07.966Z,1.20
2018-06-25T08:11:36.252Z,1.20
2018-06-25T08:14:04.435Z,1.20
2018-06-25T08:16:32.637Z,1.17
2018-06-25T08:19:00.771Z,1.30
2018-06-25T08:21:28.920Z,1.13
2018-06-25T08:23:57.202Z,1.17
2018-06-25T08:26:25.367Z,1.40
2018-06-25T08:28:53.542Z,1.60
2018-06-25T08:31:21.748Z,1.87
2018-06-25T08:33:49.989Z,1.77
2018-06-25T08:36:18.079Z,1.50
2018-06-25T08:38:46.235Z,1.37
2018-06-25T08:41:14.410Z,1.50
2018-06-25T08:43:42.523Z,1.47
2018-06-25T08:46:10.745Z,1.50
2018-06-25T08:48:38.860Z,1.50
2018-06-25T08:51:07.022Z,1.30
2018-06-25T08:53:35.220Z,1.77
2018-06-25T08:56:03.344Z,1.20
2018-06-25T08:58:31.562Z,1.17
2018-06-25T09:00:59.683Z,1.20
2018-06-25T09:03:28.033Z,1.40
2018-06-25T09:05:56.229Z,1.20
2018-06-25T09:08:24.375Z,1.33
2018-06-25T09:10:52.480Z,1.43
2018-06-25T09:13:20.677Z,1.27
2018-06-25T09:15:48.876Z,1.30
2018-06-25T09:18:17.028Z,1.30
2018-06-25T09:20:45.323Z,0.90
2018-06-25T09:23:13.521Z,1.30
2018-06-25T09:25:41.788Z,1.10
2018-06-25T09:28:09.944Z,1.10
2018-06-25T09:30:38.260Z,0.80
2018-06-25T09:33:06.501Z,0.80
2018-06-25T09:35:34.627Z,1.73
2018-06-25T09:38:02.845Z,1.27
2018-06-25T09:40:30.953Z,1.37
2018-06-25T09:42:59.057Z,3.17
2018-06-25T09:45:27.252Z,1.10
2018-06-25T09:47:55.499Z,1.10
2018-06-25T09:50:23.708Z,0.83
2018-06-25T09:52:51.928Z,0.90
2018-06-25T09:55:20.124Z,1.00
2018-06-25T09:57:48.449Z,0.90
2018-06-25T10:00:21.919Z,1.00
2018-06-25T10:02:50.060Z,0.90
2018-06-25T10:05:18.171Z,1.07
2018-06-25T10:07:46.371Z,1.00
2018-06-25T10:10:14.586Z,2.13
2018-06-25T10:12:42.764Z,0.97
2018-06-25T10:15:10.967Z,1.20
2018-06-25T10:17:39.144Z,1.00
2018-06-25T10:20:07.324Z,0.70
2018-06-25T10:22:35.553Z,0.73
2018-06-25T10:25:03.721Z,1.00
2018-06-25T10:27:31.879Z,0.67
2018-06-25T10:30:00.082Z,1.13
2018-06-25T10:32:28.291Z,2.63
2018-06-25T10:34:56.936Z,1.40
2018-06-25T10:37:25.136Z,0.83
2018-06-25T10:39:53.310Z,0.90
2018-06-25T10:42:21.585Z,0.90
2018-06-25T10:44:49.725Z,1.30
2018-06-25T10:47:17.952Z,0.80
2018-06-25T10:49:46.123Z,0.80
2018-06-25T10:52:14.277Z,0.63
2018-06-25T10:54:42.386Z,0.80
2018-06-25T10:57:10.631Z,0.77
2018-06-25T10:59:38.970Z,0.80
2018-06-25T11:02:07.144Z,0.80
2018-06-25T11:04:35.426Z,0.80
2018-06-25T11:07:03.701Z,1.20
2018-06-25T11:09:31.857Z,2.87
2018-06-25T11:12:00.023Z,0.90
2018-06-25T11:14:28.188Z,0.87
2018-06-25T11:16:56.316Z,1.00
2018-06-25T11:19:24.542Z,0.90
2018-06-25T11:21:52.740Z,0.70
2018-06-25T11:24:20.902Z,0.70
2018-06-25T11:26:49.071Z,1.00
2018-06-25T11:29:17.248Z,0.70
2018-06-25T11:31:45.498Z,0.70
2018-06-25T11:34:13.705Z,0.70
2018-06-25T11:36:41.897Z,0.80
2018-06-25T11:39:11.270Z,0.80
2018-06-25T11:41:39.506Z,0.97
2018-06-25T11:44:07.717Z,0.77
2018-06-25T11:46:36.055Z,0.70
2018-06-25T11:49:04.940Z,0.73
2018-06-25T11:51:33.160Z,0.60
2018-06-25T11:54:01.334Z,0.60
2018-06-25T11:56:29.502Z,0.80
2018-06-25T11:58:57.701Z,0.70
2018-06-25T12:01:25.826Z,1.20
2018-06-25T12:03:53.981Z,0.70
2018-06-25T12:06:22.155Z,1.37
2018-06-25T12:08:50.355Z,1.00
2018-06-25T12:11:18.564Z,0.90
2018-06-25T12:13:46.734Z,0.93
2018-06-25T12:16:14.923Z,0.90
2018-06-25T12:18:43.134Z,0.70
2018-06-25T12:21:11.295Z,0.53
2018-06-25T12:23:39.460Z,0.70
2018-06-25T12:26:07.621Z,0.90
2018-06-25T12:28:35.779Z,0.90
2018-06-25T12:31:03.960Z,0.87
2018-06-25T12:33:33.581Z,0.83
2018-06-25T12:36:01.756Z,0.83
2018-06-25T12:38:29.947Z,1.60
2018-06-25T12:40:58.067Z,0.90
2018-06-25T12:43:26.175Z,1.13
2018-06-25T12:45:54.432Z,0.90
2018-06-25T12:48:22.565Z,0.73
2018-06-25T12:50:50.820Z,0.90
2018-06-25T12:53:19.009Z,0.77
2018-06-25T12:55:47.239Z,0.70
2018-06-25T12:58:15.437Z,0.70
2018-06-25T13:00:43.636Z,0.70
2018-06-25T13:03:11.949Z,0.90
2018-06-25T13:05:40.142Z,0.70
2018-06-25T13:08:08.406Z,0.60
2018-06-25T13:10:36.608Z,0.80
2018-06-25T13:13:04.763Z,0.70
2018-06-25T13:15:32.957Z,0.80
2018-06-25T13:18:01.137Z,0.80
2018-06-25T13:20:29.298Z,1.03
2018-06-25T13:22:57.452Z,0.80
2018-06-25T13:25:25.684Z,1.00
2018-06-25T13:27:53.817Z,0.80
2018-06-25T13:30:22.064Z,1.27
2018-06-25T13:32:50.333Z,0.80
2018-06-25T13:35:18.504Z,1.17
2018-06-25T13:37:46.654Z,0.80
2018-06-25T13:40:14.875Z,0.87
2018-06-25T13:42:43.177Z,0.80
2018-06-25T13:45:11.339Z,0.70
2018-06-25T13:47:39.532Z,0.80
2018-06-25T13:50:07.764Z,0.70
2018-06-25T13:52:36.132Z,0.70
2018-06-25T13:55:04.472Z,0.60
2018-06-25T13:57:32.744Z,1.20
2018-06-25T14:00:00.950Z,0.80
2018-06-25T14:02:29.070Z,3.43
2018-06-25T14:04:57.204Z,0.67
2018-06-25T14:07:25.416Z,0.90
2018-06-25T14:09:53.569Z,0.80
2018-06-25T14:12:21.707Z,2.20
2018-06-25T14:14:49.840Z,1.00
2018-06-25T14:17:17.999Z,0.77
2018-06-25T14:19:46.293Z,1.00
2018-06-25T14:22:14.432Z,1.30
2018-06-25T14:24:48.112Z,1.93
2018-06-25T14:27:16.341Z,1.00
2018-06-25T14:29:44.585Z,0.90
2018-06-25T14:32:18.182Z,0.63
2018-06-25T14:34:51.612Z,1.00
2018-06-25T14:37:19.891Z,0.73
2018-06-25T14:39:48.083Z,2.63
2018-06-25T14:42:16.290Z,0.83
2018-06-25T14:44:44.499Z,1.80
2018-06-25T14:47:12.643Z,1.07
2018-06-25T14:49:40.734Z,1.00
2018-06-25T14:52:08.957Z,0.73
2018-06-25T14:54:37.091Z,0.80
2018-06-25T14:57:05.312Z,0.83
2018-06-25T14:59:33.566Z,0.80
2018-06-25T15:02:01.749Z,0.90
2018-06-25T15:04:29.943Z,0.67
2018-06-25T15:06:58.173Z,1.00
2018-06-25T15:09:26.418Z,0.90
2018-06-25T15:11:54.566Z,0.93
2018-06-25T15:14:22.679Z,1.00
2018-06-25T15:16:50.862Z,3.63
2018-06-25T15:19:19.113Z,1.00
2018-06-25T15:21:47.339Z,0.90
2018-06-25T15:24:15.504Z,1.00
2018-06-25T15:26:43.737Z,0.67
2018-06-25T15:29:11.970Z,0.80
2018-06-25T15:31:40.172Z,0.80
2018-06-25T15:34:08.363Z,0.90
2018-06-25T15:36:36.477Z,1.13
2018-06-25T15:39:06.768Z,0.90
2018-06-25T15:41:34.897Z,0.90
2018-06-25T15:44:03.611Z,0.90
2018-06-25T15:46:31.765Z,1.00
2018-06-25T15:48:59.967Z,0.90
2018-06-25T15:51:28.096Z,0.83
2018-06-25T15:53:56.394Z,1.03
2018-06-25T15:56:24.582Z,1.13
2018-06-25T15:58:52.807Z,0.80
2018-06-25T16:01:21.009Z,1.00
2018-06-25T16:03:49.185Z,1.00
2018-06-25T16:06:17.404Z,0.90
2018-06-25T16:08:45.599Z,1.00
2018-06-25T16:11:13.767Z,0.97
2018-06-25T16:13:41.945Z,1.03
2018-06-25T16:16:10.134Z,1.20
2018-06-25T16:18:38.394Z,1.70
2018-06-25T16:21:06.597Z,10.97
2018-06-25T16:23:34.938Z,1.03
2018-06-25T16:26:03.095Z,1.10
2018-06-25T16:28:31.431Z,0.80
2018-06-25T16:30:59.726Z,0.90
2018-06-25T16:33:27.839Z,1.50
2018-06-25T16:35:55.984Z,1.67
2018-06-25T16:38:24.160Z,1.23
2018-06-25T16:40:52.517Z,0.90
2018-06-25T16:43:20.577Z,1.00
2018-06-25T16:45:48.720Z,1.93
2018-06-25T16:48:16.908Z,1.00
2018-06-25T16:50:45.077Z,1.53
2018-06-25T16:53:13.332Z,5.53
2018-06-25T16:55:41.525Z,1.00
2018-06-25T16:58:09.678Z,1.27
2018-06-25T17:00:37.888Z,1.10
2018-06-25T17:03:06.042Z,1.10
2018-06-25T17:05:34.278Z,1.07
2018-06-25T17:08:02.514Z,1.30
2018-06-25T17:10:30.779Z,1.10
2018-06-25T17:12:58.946Z,0.90
2018-06-25T17:15:27.244Z,0.90
2018-06-25T17:17:55.401Z,0.70
2018-06-25T17:20:23.625Z,0.90
2018-06-25T17:22:51.782Z,1.13
2018-06-25T17:25:19.972Z,1.20
2018-06-25T17:27:48.176Z,1.23
2018-06-25T17:30:16.371Z,1.50
2018-06-25T17:32:44.643Z,1.90
2018-06-25T17:35:12.815Z,2.30
2018-06-25T17:37:41.030Z,1.40
2018-06-25T17:40:09.185Z,1.43
2018-06-25T17:42:37.336Z,1.23
2018-06-25T17:45:05.537Z,1.10
2018-06-25T17:47:33.878Z,1.00
2018-06-25T17:50:02.043Z,1.23
2018-06-25T17:52:30.305Z,1.10
2018-06-25T17:54:58.431Z,1.20
2018-06-25T17:57:26.787Z,1.20
2018-06-25T17:59:55.040Z,2.20
2018-06-25T18:02:23.326Z,2.47
2018-06-25T18:04:51.479Z,3.60
2018-06-25T18:07:19.684Z,5.03
2018-06-25T18:09:48.156Z,1.40
2018-06-25T18:12:16.406Z,1.80
2018-06-25T18:14:44.913Z,1.50
2018-06-25T18:17:13.238Z,1.63
2018-06-25T18:19:41.452Z,1.57
2018-06-25T18:22:09.771Z,2.67
2018-06-25T18:24:37.960Z,3.00
2018-06-25T18:27:06.691Z,2.70
2018-06-25T18:29:34.890Z,2.30
2018-06-25T18:32:03.116Z,5.73
2018-06-25T18:34:31.247Z,3.10
2018-06-25T18:36:59.612Z,3.60
2018-06-25T18:39:27.816Z,1.60
2018-06-25T18:41:56.057Z,1.23
2018-06-25T18:44:24.422Z,1.60
2018-06-25T18:46:52.641Z,1.40
2018-06-25T18:49:20.868Z,1.40
2018-06-25T18:51:49.057Z,1.40
2018-06-25T18:54:17.203Z,1.47
2018-06-25T18:56:45.393Z,1.20
2018-06-25T18:59:13.647Z,1.40
2018-06-25T19:01:42.220Z,1.30
2018-06-25T19:04:10.486Z,1.40
2018-06-25T19:06:38.877Z,1.40
2018-06-25T19:09:08.839Z,1.30
2018-06-25T19:11:37.209Z,1.70
2018-06-25T19:14:05.385Z,1.60
2018-06-25T19:16:33.658Z,1.30
2018-06-25T19:19:02.346Z,1.70
2018-06-25T19:21:30.816Z,1.40
2018-06-25T19:23:59.865Z,1.50
2018-06-25T19:26:28.062Z,1.70
2018-06-25T19:28:56.296Z,1.43
2018-06-25T19:31:24.549Z,1.63
2018-06-25T19:33:52.859Z,1.47
2018-06-25T19:36:22.126Z,1.63
2018-06-25T19:38:50.385Z,1.47
2018-06-25T19:41:18.577Z,1.60
2018-06-25T19:43:46.868Z,4.60
2018-06-25T19:46:15.067Z,1.50
2018-06-25T19:48:43.390Z,9.87
2018-06-25T19:51:11.627Z,8.83
2018-06-25T19:53:39.958Z,1.47
2018-06-25T19:56:08.227Z,1.57
2018-06-25T19:58:36.526Z,1.40
2018-06-25T20:01:04.885Z,1.40
2018-06-25T20:03:33.084Z,1.37
2018-06-25T20:06:01.360Z,1.40
2018-06-25T20:08:29.583Z,1.30
2018-06-25T20:10:57.814Z,1.40
2018-06-25T20:13:26.278Z,1.30
2018-06-25T20:15:54.706Z,1.57
2018-06-25T20:18:22.960Z,1.53
2018-06-25T20:20:51.231Z,1.40
2018-06-25T20:23:19.414Z,1.20
2018-06-25T20:25:47.672Z,1.43
2018-06-25T20:28:16.094Z,1.40
2018-06-25T20:30:44.456Z,1.20
2018-06-25T20:33:12.672Z,1.60
2018-06-25T20:35:41.124Z,1.70
2018-06-25T20:38:10.487Z,1.30
2018-06-25T20:40:38.937Z,1.10
2018-06-25T20:43:07.138Z,1.20
2018-06-25T20:45:35.307Z,1.30
2018-06-25T20:48:03.558Z,1.23
2018-06-25T20:50:31.817Z,1.40
2018-06-25T20:53:00.039Z,1.50
2018-06-25T20:55:28.401Z,1.20
2018-06-25T20:57:56.635Z,1.57
2018-06-25T21:00:25.054Z,1.43
2018-06-25T21:02:53.334Z,1.83
2018-06-25T21:05:21.646Z,1.53
2018-06-25T21:07:49.901Z,1.40
2018-06-25T21:10:18.287Z,1.67
2018-06-25T21:12:46.573Z,1.40
2018-06-25T21:15:15.340Z,1.80
2018-06-25T21:17:43.684Z,1.80
2018-06-25T21:20:11.947Z,1.90
2018-06-25T21:22:40.218Z,1.63
2018-06-25T21:25:08.478Z,1.83
2018-06-25T21:27:36.783Z,2.00
2018-06-25T21:30:05.955Z,1.77
2018-06-25T21:32:34.164Z,1.50
2018-06-25T21:35:02.399Z,1.50
2018-06-25T21:37:30.709Z,1.60
2018-06-25T21:39:59.083Z,1.40
2018-06-25T21:42:27.323Z,1.60
2018-06-25T21:44:55.562Z,1.73
2018-06-25T21:47:24.206Z,1.80
2018-06-25T21:49:52.708Z,1.57
2018-06-25T21:52:21.086Z,1.80
2018-06-25T21:54:49.383Z,1.80
2018-06-25T21:57:17.587Z,1.67
2018-06-25T21:59:45.904Z,1.47
2018-06-25T22:02:14.410Z,1.40
2018-06-25T22:04:42.609Z,1.40
2018-06-25T22:07:10.909Z,1.47
2018-06-25T22:09:39.151Z,1.40
2018-06-25T22:12:07.290Z,1.30
2018-06-25T22:14:35.630Z,1.33
2018-06-25T22:17:04.153Z,1.40
2018-06-25T22:19:32.347Z,1.83
2018-06-25T22:22:00.652Z,1.60
2018-06-25T22:24:28.923Z,1.40
2018-06-25T22:26:57.058Z,1.53
2018-06-25T22:29:25.560Z,1.50
2018-06-25T22:31:53.803Z,1.60
2018-06-25T22:34:22.010Z,1.77
2018-06-25T22:36:50.167Z,1.50
2018-06-25T22:39:18.489Z,1.67
2018-06-25T22:41:46.736Z,1.97
2018-06-25T22:44:14.957Z,1.90
2018-06-25T22:46:44.368Z,1.83
2018-06-25T22:49:12.890Z,1.70
2018-06-25T22:51:41.069Z,1.90
2018-06-25T22:54:09.389Z,1.70
2018-06-25T22:56:37.655Z,1.83
2018-06-25T22:59:06.326Z,1.90
2018-06-25T23:01:34.551Z,1.60
2018-06-25T23:04:02.657Z,2.20
2018-06-25T23:06:30.810Z,2.00
2018-06-25T23:08:59.008Z,1.90
2018-06-25T23:11:27.231Z,1.73
2018-06-25T23:13:55.404Z,1.90
2018-06-25T23:16:23.599Z,1.90
2018-06-25T23:18:51.824Z,1.87
2018-06-25T23:21:20.108Z,1.90
2018-06-25T23:23:48.294Z,2.00
2018-06-25T23:26:16.452Z,2.07
2018-06-25T23:28:44.725Z,2.03
2018-06-25T23:31:12.950Z,1.93
2018-06-25T23:33:41.040Z,2.07
2018-06-25T23:36:09.229Z,2.10
2018-06-25T23:38:38.397Z,2.50
2018-06-25T23:41:06.678Z,2.13
2018-06-25T23:43:34.749Z,2.07
2018-06-25T23:46:02.953Z,2.00
2018-06-25T23:48:31.116Z,2.10
2018-06-25T23:50:59.346Z,2.00
2018-06-25T23:53:27.580Z,1.93
2018-06-25T23:55:55.761Z,2.20
2018-06-25T23:58:24.006Z,1.90
